| time (UTC) | temp F | wind direction | speed knots | gust knots | rain 1hr in | rain 24hr in | rain mn in | humidity % | barometer mb |
| 20260502162916 | 76 | 0.0 | 0.0 | 0.00 | 0.00 | 0.00 | 24 | 1016.1 | |
| 20260502161915 | 75 | 0.0 | 0.0 | 0.00 | 0.00 | 0.00 | 27 | 1016.5 | |
| 20260502160915 | 74 | 0.0 | 0.0 | 0.00 | 0.00 | 0.00 | 25 | 1016.7 | |
| 20260502151912 | 76 | 0.0 | 0.0 | 0.00 | 0.00 | 0.00 | 24 | 1017.3 | |
| 20260502122913 | 75 | 0.0 | 0.0 | 0.00 | 0.00 | 0.00 | 29 | 1019.8 | |
| 20260502121913 | 72 | 0.0 | 0.0 | 0.00 | 0.00 | 0.00 | 31 | 1020.2 | |
| 20260502120913 | 71 | 0.0 | 0.0 | 0.00 | 0.00 | 0.00 | 32 | 1020.4 | |
| 20260502115913 | 69 | 0.0 | 0.0 | 0.00 | 0.00 | 0.00 | 33 | 1020.9 | |
| 20260502114914 | 68 | 0.0 | 0.0 | 0.00 | 0.00 | 0.00 | 34 | 1021.2 | |
| 20260502113914 | 68 | 0.0 | 0.0 | 0.00 | 0.00 | 0.00 | 35 | 1021.4 | |
| 20260502112914 | 67 | 0.0 | 0.0 | 0.00 | 0.00 | 0.00 | 36 | 1021.3 | |
| 20260502111914 | 67 | 0.0 | 0.0 | 0.00 | 0.00 | 0.00 | 35 | 1021.6 | |
| 20260502110913 | 66 | 0.0 | 0.0 | 0.00 | 0.00 | 0.00 | 36 | 1021.8 | |
| 20260502104913 | 66 | 0.0 | 0.0 | 0.00 | 0.00 | 0.00 | 38 | 1022.1 | |
| 20260502103912 | 65 | 0.0 | 0.0 | 0.00 | 0.00 | 0.00 | 38 | 1022.3 | |
| 20260502102912 | 65 | 0.0 | 0.0 | 0.00 | 0.00 | 0.00 | 38 | 1022.4 | |
| 20260502101914 | 65 | 0.0 | 0.0 | 0.00 | 0.00 | 0.00 | 37 | 1022.7 | |
| 20260502100915 | 65 | 0.0 | 0.0 | 0.00 | 0.00 | 0.00 | 38 | 1022.9 | |
| 20260502090914 | 63 | 0.0 | 0.0 | 0.00 | 0.00 | 0.00 | 42 | 1023.6 | |
| 20260502064914 | 51 | 0.0 | 0.0 | 0.00 | 0.00 | 0.00 | 60 | 1025.2 | |
| 20260502063914 | 50 | 0.0 | 0.0 | 0.00 | 0.00 | 0.00 | 61 | 1025.2 | |
| 20260502062913 | 49 | 0.0 | 0.0 | 0.00 | 0.00 | 0.00 | 63 | 1025.3 | |
| 20260502061913 | 48 | 0.0 | 0.0 | 0.00 | 0.00 | 0.00 | 65 | 1025.4 | |
| 20260502060913 | 46 | 0.0 | 0.0 | 0.00 | 0.00 | 0.00 | 66 | 1025.5 | |
| 20260502055915 | 45 | 0.0 | 0.0 | 0.00 | 0.00 | 0.00 | 69 | 1025.6 | |
| 20260502055813 | 45 | 0.0 | 0.0 | 0.00 | 0.00 | 0.00 | 69 | 1025.6 | |
| 20260502055612 | 45 | 0.0 | 0.0 | 0.00 | 0.00 | 0.00 | 70 | 1025.6 | |
| 20260502055414 | 45 | 0.0 | 0.0 | 0.00 | 0.00 | 0.00 | 71 | 1025.5 | |
| 20260502055313 | 45 | 0.0 | 0.0 | 0.00 | 0.00 | 0.00 | 70 | 1025.6 | |
| 20260502054318 | 44 | 0.0 | 0.0 | 0.00 | 0.00 | 0.00 | 73 | 1025.7 | |
| 20260502053343 | 42 | 0.0 | 0.0 | 0.00 | 0.00 | 0.00 | 74 | 1025.6 | |
| 20260502051119 | 42 | 0.0 | 0.0 | 0.00 | 0.00 | 0.00 | 73 | 1025.5 | |
| 20260502045913 | 41 | 0.0 | 0.0 | 0.00 | 0.00 | 0.00 | 73 | 1025.6 | |
| 20260502044913 | 41 | 0.0 | 0.0 | 0.00 | 0.00 | 0.00 | 73 | 1025.5 | |
| 20260502043912 | 41 | 0.0 | 0.0 | 0.00 | 0.00 | 0.00 | 72 | 1025.5 | |
| 20260502042913 | 40 | 0.0 | 0.0 | 0.00 | 0.00 | 0.00 | 72 | 1025.5 | |
| 20260502041913 | 41 | 0.0 | 0.0 | 0.00 | 0.00 | 0.00 | 73 | 1025.5 | |
| 20260502040913 | 40 | 0.0 | 0.0 | 0.00 | 0.00 | 0.00 | 73 | 1025.5 | |
| 20260502035913 | 40 | 0.0 | 0.0 | 0.00 | 0.00 | 0.00 | 74 | 1025.5 | |
| 20260502032912 | 39 | 0.0 | 0.0 | 0.00 | 0.00 | 0.00 | 73 | 1025.7 | |
| 20260502031913 | 40 | 0.0 | 0.0 | 0.00 | 0.00 | 0.00 | 73 | 1025.8 | |
| 20260502030914 | 40 | 0.0 | 0.0 | 0.00 | 0.00 | 0.00 | 73 | 1025.8 | |
| 20260502025913 | 40 | 0.0 | 0.0 | 0.00 | 0.00 | 0.00 | 73 | 1025.8 | |
| 20260502022912 | 40 | 0.0 | 0.0 | 0.00 | 0.00 | 0.00 | 71 | 1025.8 | |
| 20260502021915 | 41 | 0.0 | 0.0 | 0.00 | 0.00 | 0.00 | 71 | 1025.9 | |
| 20260502020915 | 41 | 0.0 | 0.0 | 0.00 | 0.00 | 0.00 | 70 | 1025.9 | |
| 20260502015913 | 41 | 0.0 | 0.0 | 0.00 | 0.00 | 0.00 | 69 | 1026.0 | |
| 20260502014913 | 42 | 0.0 | 0.0 | 0.00 | 0.00 | 0.00 | 67 | 1026.0 | |
| 20260502013913 | 42 | 0.0 | 0.0 | 0.00 | 0.00 | 0.00 | 68 | 1025.9 | |
| 20260502012912 | 42 | 0.0 | 0.0 | 0.00 | 0.00 | 0.00 | 66 | 1026.0 | |
| 20260502005913 | 43 | 0.0 | 0.0 | 0.00 | 0.00 | 0.00 | 65 | 1026.1 | |
| 20260502004914 | 43 | 0.0 | 0.0 | 0.00 | 0.00 | 0.00 | 65 | 1026.1 | |
| 20260502003913 | 43 | 0.0 | 0.0 | 0.00 | 0.00 | 0.00 | 64 | 1026.2 | |
| 20260502002911 | 44 | 0.0 | 0.0 | 0.00 | 0.00 | 0.00 | 63 | 1026.4 | |
| 20260502000914 | 44 | 0.0 | 0.0 | 0.00 | 0.00 | 0.00 | 61 | 1026.5 | |
| 20260501235915 | 45 | 0.0 | 0.0 | 0.00 | 0.00 | 0.00 | 60 | 1026.6 | |
| 20260501234916 | 45 | 0.0 | 0.0 | 0.00 | 0.00 | 0.00 | 60 | 1026.6 | |
| 20260501233913 | 45 | 0.0 | 0.0 | 0.00 | 0.00 | 0.00 | 59 | 1026.7 | |
| 20260501232913 | 46 | 0.0 | 0.0 | 0.00 | 0.00 | 0.00 | 58 | 1026.6 | |
| 20260501231914 | 46 | 0.0 | 0.0 | 0.00 | 0.00 | 0.00 | 58 | 1026.6 | |
| 20260501230913 | 46 | 0.0 | 0.0 | 0.00 | 0.00 | 0.00 | 57 | 1026.6 | |
| 20260501225914 | 47 | 0.0 | 0.0 | 0.00 | 0.00 | 0.00 | 58 | 1026.7 | |
| 20260501224913 | 47 | 0.0 | 0.0 | 0.00 | 0.00 | 0.00 | 59 | 1026.7 | |
| 20260501223912 | 47 | 0.0 | 0.0 | 0.00 | 0.00 | 0.00 | 56 | 1026.7 | |
| 20260501222914 | 48 | 0.0 | 0.0 | 0.00 | 0.00 | 0.00 | 56 | 1026.8 | |
| 20260501221913 | 48 | 0.0 | 0.0 | 0.00 | 0.00 | 0.00 | 56 | 1026.9 | |
| 20260501220912 | 48 | 0.0 | 0.0 | 0.00 | 0.00 | 0.00 | 56 | 1026.9 | |
| 20260501215912 | 49 | 0.0 | 0.0 | 0.00 | 0.00 | 0.00 | 54 | 1027.0 | |
| 20260501214914 | 49 | 0.0 | 0.0 | 0.00 | 0.00 | 0.00 | 53 | 1027.1 | |
| 20260501213914 | 50 | 0.0 | 0.0 | 0.00 | 0.00 | 0.00 | 51 | 1027.2 | |
| 20260501212913 | 50 | 0.0 | 0.0 | 0.00 | 0.00 | 0.00 | 51 | 1027.1 | |
| 20260501211912 | 50 | 0.0 | 0.0 | 0.00 | 0.00 | 0.00 | 49 | 1027.3 | |
| 20260501210913 | 51 | 0.0 | 0.0 | 0.00 | 0.00 | 0.00 | 48 | 1027.2 | |
| 20260501205912 | 51 | 0.0 | 0.0 | 0.00 | 0.00 | 0.00 | 48 | 1027.3 | |
| 20260501205812 | 51 | 0.0 | 0.0 | 0.00 | 0.00 | 0.00 | 48 | 1027.3 | |
| 20260501205713 | 51 | 0.0 | 0.0 | 0.00 | 0.00 | 0.00 | 48 | 1027.4 | |
| 20260501205613 | 51 | 0.0 | 0.0 | 0.00 | 0.00 | 0.00 | 48 | 1027.3 | |
| 20260501205511 | 51 | 0.0 | 0.0 | 0.00 | 0.00 | 0.00 | 47 | 1027.3 | |
| 20260501205412 | 51 | 0.0 | 0.0 | 0.00 | 0.00 | 0.00 | 47 | 1027.4 | |
| 20260501205314 | 51 | 0.0 | 0.0 | 0.00 | 0.00 | 0.00 | 47 | 1027.3 | |
| 20260501205214 | 52 | 0.0 | 0.0 | 0.00 | 0.00 | 0.00 | 47 | 1027.3 | |
| 20260501205114 | 52 | 0.0 | 0.0 | 0.00 | 0.00 | 0.00 | 47 | 1027.3 | |
| 20260501204115 | 52 | 0.0 | 0.0 | 0.00 | 0.00 | 0.00 | 45 | 1027.6 | |
| 20260501203115 | 52 | 0.0 | 0.0 | 0.00 | 0.00 | 0.00 | 46 | 1027.7 | |
| 20260501202115 | 53 | 0.0 | 0.0 | 0.00 | 0.00 | 0.00 | 45 | 1027.8 | |
| 20260501201113 | 54 | 0.0 | 0.0 | 0.00 | 0.00 | 0.00 | 44 | 1027.9 | |
| 20260501194456 | 55 | 0.0 | 0.0 | 0.00 | 0.00 | 0.00 | 41 | 1027.7 | |
| 20260501192149 | 56 | 0.0 | 0.0 | 0.00 | 0.00 | 0.00 | 40 | 1027.5 | |
| 20260501184914 | 59 | 0.0 | 0.0 | 0.00 | 0.00 | 0.00 | 37 | 1027.2 | |
| 20260501183913 | 60 | 0.0 | 0.0 | 0.00 | 0.00 | 0.00 | 37 | 1027.0 | |
| 20260501182914 | 61 | 0.0 | 0.0 | 0.00 | 0.00 | 0.00 | 35 | 1026.9 | |
| 20260501181913 | 61 | 0.0 | 0.0 | 0.00 | 0.00 | 0.00 | 34 | 1026.8 | |
| 20260501180913 | 63 | 0.0 | 0.0 | 0.00 | 0.00 | 0.00 | 34 | 1026.7 | |
| 20260501175914 | 64 | 0.0 | 0.0 | 0.00 | 0.00 | 0.00 | 33 | 1026.5 | |
| 20260501173913 | 66 | 0.0 | 0.0 | 0.00 | 0.00 | 0.00 | 32 | 1026.4 | |
| 20260501172913 | 67 | 0.0 | 0.0 | 0.00 | 0.00 | 0.00 | 32 | 1026.2 | |
| 20260501171912 | 69 | 0.0 | 0.0 | 0.00 | 0.00 | 0.00 | 30 | 1026.1 | |
| 20260501170913 | 70 | 0.0 | 0.0 | 0.00 | 0.00 | 0.00 | 29 | 1025.8 | |
| 20260501165915 | 72 | 0.0 | 0.0 | 0.00 | 0.00 | 0.00 | 28 | 1025.6 | |
| 20260501164914 | 73 | 0.0 | 0.0 | 0.00 | 0.00 | 0.00 | 28 | 1025.7 | |
| 20260501163913 | 73 | 0.0 | 0.0 | 0.00 | 0.00 | 0.00 | 27 | 1025.7 |